Time;durP1;ratioP1;P1;durP2;ratioP2;P2;SDS_P1;SDS_P2;PMS_P1;PMS_P2;Temp;Humidity;BMP_temperature;BMP_pressure;BME280_temperature;BME280_humidity;BME280_pressure;Samples;Min_cycle;Max_cycle;Signal;HPM_P1;HPM_P2
2022/04/29 00:02:09;;;;;;;19.60;14.35;;;12.80;87.00;;;;;;5030799;28;20064;-54
2022/04/29 00:04:53;;;;;;;18.73;13.20;;;12.80;87.40;;;;;;5045393;28;20035;-58
2022/04/29 00:07:39;;;;;;;20.48;14.60;;;12.80;87.90;;;;;;5043864;28;20411;-62
2022/04/29 00:10:23;;;;;;;17.67;14.57;;;12.80;88.30;;;;;;5039943;28;20113;-58
2022/04/29 00:13:10;;;;;;;18.25;14.77;;;12.80;88.10;;;;;;5037422;28;20508;-59
2022/04/29 00:15:55;;;;;;;20.80;14.85;;;12.80;88.00;;;;;;5053954;28;20111;-58
2022/04/29 00:18:39;;;;;;;21.70;15.18;;;12.80;87.90;;;;;;5018474;28;20615;-58
2022/04/29 00:21:23;;;;;;;19.45;15.25;;;12.80;87.60;;;;;;5026927;28;20396;-58
2022/04/29 00:24:12;;;;;;;21.70;15.23;;;12.70;88.50;;;;;;5052788;28;20579;-55
2022/04/29 00:26:58;;;;;;;18.45;15.98;;;12.70;89.90;;;;;;5052297;28;20041;-59
2022/04/29 00:29:42;;;;;;;23.35;14.90;;;12.60;90.30;;;;;;5055719;28;20114;-57
2022/04/29 00:32:27;;;;;;;17.90;15.05;;;12.60;90.30;;;;;;5062922;28;20625;-55
2022/04/29 00:35:13;;;;;;;19.87;15.40;;;12.60;90.30;;;;;;5058682;28;20097;-58
2022/04/29 00:37:59;;;;;;;21.27;15.55;;;12.60;90.30;;;;;;5061237;28;20628;-58
2022/04/29 00:40:43;;;;;;;;;;;12.50;90.60;;;;;;5058098;28;20087;-58
2022/04/29 00:43:28;;;;;;;20.88;15.15;;;12.50;90.70;;;;;;5036064;28;20315;-56
2022/04/29 00:46:12;;;;;;;23.47;16.37;;;12.40;90.80;;;;;;5036890;28;20116;-59
2022/04/29 00:48:56;;;;;;;20.20;14.70;;;12.40;90.70;;;;;;5056935;28;20689;-58
2022/04/29 00:51:43;;;;;;;19.67;15.33;;;12.40;90.80;;;;;;5052331;28;20068;-56
2022/04/29 00:54:31;;;;;;;20.33;15.02;;;12.30;90.90;;;;;;5051182;28;20083;-54
2022/04/29 00:57:24;;;;;;;18.50;15.18;;;12.20;90.90;;;;;;5060049;28;20047;-56
2022/04/29 01:00:11;;;;;;;20.83;15.85;;;12.10;91.40;;;;;;5057401;28;20078;-59
2022/04/29 01:02:55;;;;;;;20.85;15.98;;;12.10;91.50;;;;;;5052890;28;20544;-60
2022/04/29 01:05:40;;;;;;;18.65;14.63;;;12.00;91.20;;;;;;5051836;28;20051;-58
2022/04/29 01:08:24;;;;;;;;;;;11.90;90.70;;;;;;5052852;28;20087;-57
2022/04/29 01:11:09;;;;;;;25.35;16.52;;;11.80;90.60;;;;;;5033096;28;20280;-54
2022/04/29 01:13:54;;;;;;;20.63;15.27;;;11.80;90.40;;;;;;5062204;28;20556;-60
2022/04/29 01:16:41;;;;;;;20.30;14.63;;;11.60;90.40;;;;;;5049705;28;20051;-56
2022/04/29 01:19:25;;;;;;;21.13;13.95;;;11.50;90.60;;;;;;5054500;28;20039;-54
2022/04/29 01:22:11;;;;;;;19.67;15.05;;;11.30;91.10;;;;;;5053984;28;20047;-54
2022/04/29 01:24:55;;;;;;;;;;;11.20;91.10;;;;;;5039659;28;20121;-52
2022/04/29 01:27:39;;;;;;;18.55;14.02;;;11.10;91.20;;;;;;5052824;28;19928;-54
2022/04/29 01:30:24;;;;;;;22.27;14.75;;;10.90;91.60;;;;;;5028495;28;20455;-54
2022/04/29 01:33:09;;;;;;;22.03;14.47;;;10.80;91.70;;;;;;5050296;28;20047;-51
2022/04/29 01:35:53;;;;;;;20.23;13.70;;;10.80;91.70;;;;;;5047438;28;20028;-50
2022/04/29 01:38:38;;;;;;;18.20;13.75;;;10.70;91.80;;;;;;5047561;28;20080;-51
2022/04/29 01:41:22;;;;;;;26.02;14.38;;;10.70;91.70;;;;;;5036880;28;20123;-51
2022/04/29 04:09:08;;;;;;;21.77;14.90;;;10.60;92.70;;;;;;1477809;26;20042;-53
2022/04/29 04:11:52;;;;;;;17.90;12.68;;;10.50;92.80;;;;;;5005315;28;20091;-56
2022/04/29 04:14:36;;;;;;;17.43;13.77;;;10.50;92.30;;;;;;5027194;28;20504;-52
2022/04/29 04:17:20;;;;;;;17.65;12.95;;;10.40;91.50;;;;;;5032816;28;20338;-53
2022/04/29 04:20:06;;;;;;;18.35;13.60;;;10.40;91.70;;;;;;5033120;28;20090;-57
2022/04/29 04:22:50;;;;;;;24.83;14.30;;;10.30;91.70;;;;;;5034164;28;20511;-52
2022/04/29 04:25:34;;;;;;;18.88;12.65;;;10.40;91.40;;;;;;5044229;28;20040;-56
2022/04/29 04:28:18;;;;;;;21.10;13.48;;;10.30;91.60;;;;;;5017361;28;20044;-54
2022/04/29 04:31:02;;;;;;;25.98;13.68;;;10.30;91.80;;;;;;5013875;28;20037;-52
2022/04/29 04:33:46;;;;;;;21.40;13.30;;;10.30;92.00;;;;;;5012844;28;20044;-52
2022/04/29 04:36:31;;;;;;;22.02;13.85;;;10.30;92.20;;;;;;5015131;28;20363;-54
2022/04/29 04:39:15;;;;;;;18.15;13.25;;;10.20;92.10;;;;;;5033415;28;20064;-50
2022/04/29 04:41:59;;;;;;;19.70;13.30;;;10.30;92.40;;;;;;5033245;28;20084;-52
2022/04/29 04:44:47;;;;;;;20.52;14.80;;;10.30;92.40;;;;;;5033099;28;20032;-53
2022/04/29 04:47:33;;;;;;;19.77;13.45;;;10.30;92.40;;;;;;5032467;28;20049;-55
2022/04/29 04:50:17;;;;;;;19.30;13.95;;;10.20;92.30;;;;;;5033380;28;20060;-54
2022/04/29 04:53:01;;;;;;;41.20;16.95;;;10.30;92.50;;;;;;5032833;28;20048;-56
2022/04/29 04:55:45;;;;;;;20.93;13.40;;;10.30;92.30;;;;;;5032058;28;20389;-53
2022/04/29 04:58:32;;;;;;;19.38;14.07;;;10.30;91.90;;;;;;5032793;28;20516;-56
2022/04/29 05:01:17;;;;;;;14.52;12.75;;;10.20;92.30;;;;;;5033336;28;20512;-52
2022/04/29 05:04:01;;;;;;;19.10;12.87;;;10.10;91.70;;;;;;5032425;28;20032;-56
2022/04/29 05:06:45;;;;;;;19.95;12.95;;;10.10;91.40;;;;;;5032522;28;20036;-56
2022/04/29 05:09:29;;;;;;;17.93;12.70;;;10.10;91.50;;;;;;5032878;28;20100;-54
2022/04/29 05:12:14;;;;;;;15.80;12.63;;;9.90;91.90;;;;;;5017479;28;20326;-54
2022/04/29 05:14:58;;;;;;;18.48;12.57;;;9.80;92.40;;;;;;5032788;28;20101;-56
2022/04/29 05:17:43;;;;;;;13.50;11.98;;;10.00;91.80;;;;;;5033212;28;20183;-54
2022/04/29 05:20:27;;;;;;;17.33;12.68;;;10.00;92.20;;;;;;5033311;28;20056;-53
2022/04/29 05:23:11;;;;;;;20.77;12.40;;;10.10;92.40;;;;;;5032729;28;20041;-56
2022/04/29 05:25:55;;;;;;;20.97;13.20;;;10.20;92.50;;;;;;5035748;28;20588;-54
2022/04/29 05:28:39;;;;;;;24.60;13.88;;;10.20;92.10;;;;;;5032154;28;20129;-56
2022/04/29 05:31:23;;;;;;;23.40;12.88;;;10.30;92.00;;;;;;5032479;28;20048;-56
2022/04/29 05:34:08;;;;;;;21.03;11.70;;;10.40;91.80;;;;;;5032183;28;20458;-55
2022/04/29 05:36:52;;;;;;;19.17;12.70;;;10.40;91.80;;;;;;5032429;28;20040;-51
2022/04/29 05:42:40;;;;;;;21.17;13.30;;;10.60;92.70;;;;;;5032460;28;20091;-57
2022/04/29 05:45:24;;;;;;;30.30;13.75;;;10.80;91.50;;;;;;5017716;28;20043;-57
2022/04/29 05:48:08;;;;;;;14.65;10.85;;;10.90;91.50;;;;;;5017243;28;20060;-57
2022/04/29 05:50:52;;;;;;;18.33;11.93;;;10.80;90.70;;;;;;5032526;28;20095;-60
2022/04/29 05:53:37;;;;;;;16.25;11.32;;;10.90;90.30;;;;;;5016950;28;20040;-55
2022/04/29 05:56:21;;;;;;;21.33;12.23;;;10.90;90.70;;;;;;5032166;28;20128;-53
2022/04/29 05:59:05;;;;;;;15.90;10.40;;;10.90;90.80;;;;;;5032598;28;20135;-49
2022/04/29 06:01:49;;;;;;;19.87;10.87;;;11.00;90.90;;;;;;5018107;28;20025;-52
2022/04/29 06:04:33;;;;;;;17.67;11.65;;;11.10;90.30;;;;;;5031690;28;20056;-57
2022/04/29 06:07:17;;;;;;;22.00;12.23;;;11.20;90.30;;;;;;5031798;28;20032;-54
2022/04/29 06:10:01;;;;;;;19.02;11.38;;;11.30;90.30;;;;;;5018396;28;20126;-55
2022/04/29 06:12:46;;;;;;;20.17;10.80;;;11.30;90.30;;;;;;5002498;28;20036;-60
2022/04/29 06:15:31;;;;;;;21.10;10.95;;;11.40;90.20;;;;;;5026990;28;20068;-55
2022/04/29 06:18:14;;;;;;;19.92;11.48;;;11.60;89.90;;;;;;5016842;28;20045;-58
2022/04/29 06:20:59;;;;;;;22.75;11.10;;;11.70;88.70;;;;;;5032317;28;20064;-59
2022/04/29 06:23:43;;;;;;;20.10;12.82;;;11.60;89.10;;;;;;5030507;28;20567;-57
2022/04/29 06:26:27;;;;;;;26.67;11.48;;;11.80;89.30;;;;;;5028281;28;20087;-55
2022/04/29 06:29:11;;;;;;;22.80;12.68;;;11.90;89.30;;;;;;5031642;28;20040;-56
2022/04/29 06:31:55;;;;;;;25.53;12.13;;;12.00;89.00;;;;;;5033456;28;20405;-58
2022/04/29 06:34:39;;;;;;;18.67;11.53;;;12.20;88.60;;;;;;5032086;28;20033;-60
2022/04/29 06:37:23;;;;;;;18.30;10.95;;;12.20;88.10;;;;;;5031688;28;20608;-56
2022/04/29 06:40:08;;;;;;;24.63;10.70;;;12.30;88.10;;;;;;5032223;28;20062;-57
2022/04/29 06:42:52;;;;;;;25.08;11.25;;;12.30;88.20;;;;;;5031874;28;20291;-54
2022/04/29 06:45:36;;;;;;;28.90;11.27;;;12.50;87.90;;;;;;5019461;28;20432;-56
2022/04/29 06:48:21;;;;;;;16.90;10.63;;;12.50;87.80;;;;;;5033368;28;20100;-56
2022/04/29 06:51:05;;;;;;;20.95;12.35;;;12.60;88.00;;;;;;5016486;28;20064;-57
2022/04/29 06:53:49;;;;;;;21.63;11.47;;;12.60;87.50;;;;;;5016663;28;20053;-57
2022/04/29 06:56:33;;;;;;;18.87;10.60;;;12.60;87.70;;;;;;5011706;28;20084;-55
2022/04/29 06:59:18;;;;;;;17.70;11.40;;;12.70;87.50;;;;;;5014430;28;20041;-56
2022/04/29 07:02:02;;;;;;;22.52;11.68;;;12.70;86.90;;;;;;5035482;28;20120;-56
2022/04/29 07:04:46;;;;;;;25.50;14.30;;;12.60;88.20;;;;;;5025045;28;20574;-57
2022/04/29 07:07:30;;;;;;;19.90;10.73;;;12.50;88.70;;;;;;5039798;28;20040;-58
2022/04/29 07:10:15;;;;;;;23.90;11.17;;;12.70;88.80;;;;;;5016898;28;20053;-56
2022/04/29 07:13:03;;;;;;;16.92;11.55;;;12.70;88.70;;;;;;5016358;28;20117;-55
2022/04/29 07:15:44;;;;;;;25.38;11.20;;;12.80;87.90;;;;;;5031291;28;20091;-53
2022/04/29 07:18:28;;;;;;;20.92;11.02;;;12.80;88.60;;;;;;5019168;28;20095;-55
2022/04/29 07:21:12;;;;;;;14.85;9.63;;;12.60;89.60;;;;;;5034783;28;20040;-56
2022/04/29 07:23:57;;;;;;;16.73;10.35;;;12.60;89.20;;;;;;5034382;28;20102;-58
2022/04/29 07:26:41;;;;;;;22.67;10.02;;;12.80;88.70;;;;;;5014601;28;20037;-58
2022/04/29 07:29:25;;;;;;;32.67;11.82;;;12.80;88.70;;;;;;5002926;28;20544;-57
2022/04/29 07:32:09;;;;;;;23.00;12.27;;;12.80;88.50;;;;;;5021674;28;20594;-58
2022/04/29 07:44:04;;;;;;;20.92;13.40;;;13.30;87.40;;;;;;5022034;28;20037;-58
2022/04/29 07:46:49;;;;;;;15.63;11.03;;;13.60;85.70;;;;;;5033686;28;20151;-59
2022/04/29 07:49:33;;;;;;;23.40;10.27;;;14.00;85.30;;;;;;5034710;28;20421;-57
2022/04/29 07:52:17;;;;;;;19.93;11.20;;;14.20;85.00;;;;;;5034182;28;20100;-57
2022/04/29 07:55:01;;;;;;;18.15;10.80;;;14.30;84.00;;;;;;5018673;28;20114;-56
2022/04/29 07:57:45;;;;;;;23.38;11.35;;;14.20;84.10;;;;;;5033576;28;20044;-56
2022/04/29 08:00:31;;;;;;;15.73;10.82;;;14.20;84.10;;;;;;5033702;28;20075;-57
2022/04/29 08:03:15;;;;;;;15.77;10.90;;;14.30;83.90;;;;;;5032817;28;20546;-56
2022/04/29 08:06:00;;;;;;;20.17;11.73;;;14.50;83.80;;;;;;5033236;28;20036;-58
2022/04/29 08:08:44;;;;;;;21.35;11.40;;;14.50;82.20;;;;;;5033543;28;20106;-57
2022/04/29 08:11:28;;;;;;;22.42;14.65;;;14.50;82.50;;;;;;5024294;28;20039;-57
2022/04/29 08:14:12;;;;;;;20.77;11.97;;;14.50;82.30;;;;;;5032898;28;20043;-53
2022/04/29 08:16:57;;;;;;;;;;;14.40;82.50;;;;;;5030941;28;20535;-56
2022/04/29 08:19:41;;;;;;;25.45;12.43;;;14.30;83.50;;;;;;5012177;28;19913;-57
2022/04/29 08:22:25;;;;;;;20.83;12.53;;;14.40;83.50;;;;;;5013301;28;20041;-56
2022/04/29 08:25:10;;;;;;;14.57;10.33;;;14.40;83.20;;;;;;5012756;28;20280;-55
2022/04/29 08:27:54;;;;;;;;;;;14.50;83.60;;;;;;5029513;28;20321;-56
2022/04/29 08:30:38;;;;;;;16.55;11.85;;;14.60;84.00;;;;;;5021166;28;19967;-55
2022/04/29 08:33:24;;;;;;;21.77;12.00;;;14.60;84.20;;;;;;5032607;28;20408;-55
2022/04/29 08:36:08;;;;;;;21.13;12.48;;;14.70;84.00;;;;;;5032122;28;20506;-56
2022/04/29 08:38:52;;;;;;;18.17;12.23;;;14.80;84.30;;;;;;5033173;28;20393;-52
2022/04/29 08:41:38;;;;;;;20.53;12.47;;;14.80;84.50;;;;;;5033956;28;20358;-52
2022/04/29 08:44:26;;;;;;;16.35;11.30;;;15.10;83.60;;;;;;5033161;28;20291;-55
2022/04/29 08:47:10;;;;;;;24.02;12.80;;;15.40;83.50;;;;;;5017439;28;20536;-55
2022/04/29 08:49:55;;;;;;;20.05;12.43;;;15.60;82.90;;;;;;5017738;28;20079;-56
2022/04/29 08:52:39;;;;;;;20.60;11.27;;;15.50;82.70;;;;;;5017441;28;20115;-55
2022/04/29 08:58:43;;;;;;;23.38;12.10;;;15.90;82.00;;;;;;5012886;28;20045;-54
2022/04/29 09:01:28;;;;;;;13.32;9.10;;;16.30;81.40;;;;;;5015242;28;20084;-56
2022/04/29 09:04:12;;;;;;;15.50;9.50;;;16.40;79.70;;;;;;5032420;28;20087;-55
2022/04/29 09:06:56;;;;;;;16.40;10.10;;;16.50;78.80;;;;;;5032361;28;20056;-59
2022/04/29 09:09:40;;;;;;;18.88;9.68;;;16.70;77.10;;;;;;5017754;28;20103;-58
2022/04/29 09:12:26;;;;;;;14.77;9.17;;;16.70;77.20;;;;;;5032363;28;20251;-55
2022/04/29 09:15:14;;;;;;;19.48;9.55;;;16.80;76.40;;;;;;5016230;28;20351;-56
2022/04/29 09:17:59;;;;;;;28.42;10.52;;;16.90;77.50;;;;;;5031827;28;20119;-57
2022/04/29 09:20:43;;;;;;;22.85;10.25;;;17.00;78.00;;;;;;5012398;28;20048;-58
2022/04/29 09:23:29;;;;;;;15.00;10.15;;;17.20;77.10;;;;;;5024083;28;20113;-56
2022/04/29 09:26:32;;;;;;;12.93;9.07;;;17.20;74.90;;;;;;5031538;28;20152;-54
2022/04/29 09:29:19;;;;;;;16.48;9.65;;;17.30;75.60;;;;;;5031922;28;20519;-51
2022/04/29 09:32:04;;;;;;;11.82;9.50;;;17.50;75.70;;;;;;5017076;28;20456;-57
2022/04/29 09:34:53;;;;;;;18.55;10.75;;;17.70;74.50;;;;;;5032279;28;20068;-54
2022/04/29 09:39:26;;;;;;;19.58;9.02;;;17.70;73.40;;;;;;5031633;28;20428;-53
2022/04/29 09:40:41;;;;;;;15.65;8.27;;;17.60;73.00;;;;;;5031717;28;20071;-55
2022/04/29 09:43:33;;;;;;;20.48;9.35;;;17.90;73.00;;;;;;5031958;28;20049;-55
2022/04/29 09:46:23;;;;;;;12.35;8.13;;;18.10;72.40;;;;;;5030838;28;20028;-58
2022/04/29 09:49:11;;;;;;;16.17;7.93;;;17.90;70.70;;;;;;5032267;28;20164;-55
2022/04/29 09:51:55;;;;;;;14.55;8.52;;;17.80;70.90;;;;;;5012429;28;20080;-52
2022/04/29 09:54:39;;;;;;;13.82;7.03;;;17.80;71.20;;;;;;5022192;28;20080;-55
2022/04/29 09:57:23;;;;;;;11.85;7.47;;;17.90;72.40;;;;;;5016449;28;20456;-55
2022/04/29 10:00:09;;;;;;;10.85;7.95;;;18.10;71.00;;;;;;5031204;28;20449;-58
2022/04/29 10:02:53;;;;;;;11.32;8.00;;;18.20;69.50;;;;;;5023079;28;20160;-54
2022/04/29 10:05:42;;;;;;;10.95;6.97;;;18.30;67.50;;;;;;5029515;28;20032;-55
2022/04/29 10:08:29;;;;;;;10.77;7.18;;;18.30;67.80;;;;;;5032347;28;20044;-54
2022/04/29 10:11:14;;;;;;;12.90;8.23;;;18.40;67.00;;;;;;5032641;28;20441;-53
2022/04/29 10:14:02;;;;;;;12.43;6.90;;;18.30;67.00;;;;;;5046773;28;20098;-57
2022/04/29 10:21:15;;;;;;;12.73;6.32;;;18.10;66.00;;;;;;5036663;28;20043;-57
2022/04/29 10:23:10;;;;;;;10.10;7.13;;;17.40;65.60;;;;;;5051404;28;20051;-54
2022/04/29 10:25:55;;;;;;;12.25;7.30;;;17.40;65.20;;;;;;5051699;28;20105;-57
2022/04/29 10:28:40;;;;;;;14.32;8.50;;;17.40;66.20;;;;;;5051737;28;20075;-58
2022/04/29 10:31:27;;;;;;;12.70;8.55;;;17.40;66.60;;;;;;5052223;28;20114;-55
2022/04/29 10:34:29;;;;;;;13.38;8.73;;;17.30;66.50;;;;;;5051818;28;20083;-56
2022/04/29 10:37:14;;;;;;;15.65;8.35;;;17.20;67.30;;;;;;5051525;28;20036;-57
2022/04/29 10:40:10;;;;;;;13.98;8.82;;;17.30;68.60;;;;;;5051639;28;20028;-56
2022/04/29 10:43:06;;;;;;;17.30;9.32;;;17.30;68.90;;;;;;5039320;28;20041;-53
2022/04/29 10:46:06;;;;;;;12.45;9.43;;;17.60;68.50;;;;;;5031520;28;20033;-53
2022/04/29 10:48:54;;;;;;;11.18;8.27;;;17.70;68.20;;;;;;5031614;28;20036;-58
2022/04/29 10:51:49;;;;;;;12.80;8.95;;;17.80;68.30;;;;;;5032043;28;20109;-55
2022/04/29 10:54:33;;;;;;;13.55;9.32;;;18.10;66.60;;;;;;5035180;28;20052;-56
2022/04/29 10:57:18;;;;;;;15.67;9.03;;;18.20;66.40;;;;;;5014668;28;20032;-51
2022/04/29 11:00:07;;;;;;;;;;;18.20;67.20;;;;;;5033943;28;20275;-54
2022/04/29 11:02:52;;;;;;;11.23;8.98;;;18.30;67.40;;;;;;5034831;28;19912;-52
2022/04/29 11:05:39;;;;;;;12.75;9.73;;;18.30;66.70;;;;;;5034456;28;20147;-53
2022/04/29 11:08:29;;;;;;;13.82;8.77;;;18.20;66.90;;;;;;5034550;28;20056;-53
2022/04/29 11:11:14;;;;;;;13.68;9.88;;;18.10;66.90;;;;;;5034685;28;20044;-55
2022/04/29 11:14:02;;;;;;;14.48;10.35;;;17.90;67.10;;;;;;5034163;28;20029;-57
2022/04/29 11:16:55;;;;;;;18.33;10.55;;;17.90;66.90;;;;;;5034776;28;20428;-57
2022/04/29 11:19:48;;;;;;;12.65;9.55;;;18.10;66.90;;;;;;5034570;28;20040;-54
2022/04/29 11:25:53;;;;;;;15.10;11.20;;;18.30;67.30;;;;;;5021542;28;20388;-57
2022/04/29 11:28:37;;;;;;;15.65;9.82;;;18.50;65.70;;;;;;5034329;28;20110;-55
2022/04/29 11:31:21;;;;;;;21.25;9.70;;;18.80;64.10;;;;;;5034653;28;20556;-55
2022/04/29 11:34:15;;;;;;;19.33;9.18;;;18.90;63.80;;;;;;5019687;28;20123;-58
2022/04/29 11:37:00;;;;;;;12.82;8.88;;;18.60;63.90;;;;;;5033829;28;20036;-58
2022/04/29 11:39:44;;;;;;;13.48;8.43;;;18.50;63.10;;;;;;5034366;28;20405;-53
2022/04/29 11:42:28;;;;;;;14.43;9.20;;;18.50;63.00;;;;;;5033996;28;20041;-54
2022/04/29 11:45:12;;;;;;;13.35;8.95;;;18.60;64.70;;;;;;5033891;28;20051;-58
2022/04/29 11:48:05;;;;;;;19.75;10.50;;;18.90;62.70;;;;;;5033972;28;20100;-49
2022/04/29 11:50:49;;;;;;;12.07;8.63;;;19.00;62.80;;;;;;5034128;28;20128;-53
2022/04/29 11:53:33;;;;;;;14.98;10.20;;;19.00;62.90;;;;;;5034124;28;20028;-51
2022/04/29 11:56:17;;;;;;;15.68;9.32;;;19.00;62.90;;;;;;5033496;28;20072;-57
2022/04/29 11:59:06;;;;;;;17.58;9.93;;;19.10;62.80;;;;;;5033819;28;20144;-56
2022/04/29 12:01:50;;;;;;;17.27;10.75;;;19.20;63.10;;;;;;5033751;28;20056;-52
2022/04/29 12:04:58;;;;;;;19.42;10.98;;;19.10;62.70;;;;;;5033613;28;20052;-58
2022/04/29 12:07:45;;;;;;;12.57;9.50;;;19.10;62.90;;;;;;5033688;28;20461;-55
2022/04/29 12:10:31;;;;;;;16.23;10.23;;;19.20;63.00;;;;;;5033727;28;20156;-57
2022/04/29 12:13:18;;;;;;;14.48;9.20;;;19.10;61.90;;;;;;5033716;28;20035;-57
2022/04/29 12:16:04;;;;;;;11.23;8.20;;;19.10;62.30;;;;;;5033222;28;20036;-56
2022/04/29 12:18:50;;;;;;;16.52;10.50;;;19.30;62.30;;;;;;5033430;28;20044;-55
2022/04/29 12:21:37;;;;;;;16.45;10.02;;;19.30;61.90;;;;;;5032901;28;20033;-52
2022/04/29 12:24:24;;;;;;;13.63;9.75;;;19.50;62.10;;;;;;5032972;28;20129;-56
2022/04/29 12:27:09;;;;;;;12.85;9.73;;;19.60;61.90;;;;;;5032760;28;20045;-56
2022/04/29 12:36:08;;;;;;;20.52;11.20;;;20.00;61.20;;;;;;5033133;28;20039;-57
2022/04/29 12:39:02;;;;;;;22.42;11.38;;;19.90;61.40;;;;;;5032848;28;20036;-57
2022/04/29 12:42:22;;;;;;;14.98;11.52;;;20.00;61.10;;;;;;5017966;28;20111;-53
2022/04/29 12:45:08;;;;;;;13.90;9.50;;;19.90;60.50;;;;;;5032837;28;20063;-59
2022/04/29 12:48:04;;;;;;;13.10;9.57;;;20.20;61.30;;;;;;5032929;28;20417;-59
2022/04/29 12:50:48;;;;;;;16.75;11.60;;;20.40;60.70;;;;;;5033418;28;20447;-53
2022/04/29 12:53:36;;;;;;;17.02;11.35;;;20.40;60.40;;;;;;5020891;28;20040;-56
2022/04/29 12:56:28;;;;;;;16.23;11.00;;;20.10;60.30;;;;;;5035611;28;20049;-54
2022/04/29 12:59:22;;;;;;;14.18;10.15;;;20.30;61.10;;;;;;5049405;28;20340;-59
2022/04/29 13:02:07;;;;;;;23.30;16.40;;;20.70;61.00;;;;;;5053261;28;20109;-57
2022/04/29 13:04:51;;;;;;;18.48;13.45;;;20.50;59.90;;;;;;5053071;28;20400;-56
2022/04/29 13:07:36;;;;;;;19.33;11.70;;;20.40;60.10;;;;;;5051678;28;20036;-61
2022/04/29 13:10:20;;;;;;;12.77;9.10;;;20.20;60.50;;;;;;5027554;28;20558;-54
2022/04/29 13:13:04;;;;;;;;;;;20.30;62.60;;;;;;5016958;28;20036;-54
2022/04/29 13:15:49;;;;;;;19.08;10.68;;;20.30;60.10;;;;;;5025071;28;19919;-56
2022/04/29 13:18:34;;;;;;;12.85;10.98;;;20.20;60.90;;;;;;5023882;28;20041;-57
2022/04/29 13:21:18;;;;;;;17.00;12.18;;;19.90;60.60;;;;;;5032042;28;20035;-58
2022/04/29 13:24:02;;;;;;;12.52;10.75;;;20.30;59.80;;;;;;5031590;28;20037;-58
2022/04/29 13:26:46;;;;;;;;;;;20.60;60.50;;;;;;5030014;28;20044;-58
2022/04/29 13:29:31;;;;;;;18.80;11.60;;;20.90;59.70;;;;;;5028351;28;19979;-57
2022/04/29 13:32:15;;;;;;;13.25;10.70;;;21.20;58.90;;;;;;5015699;28;20068;-60
2022/04/29 13:35:00;;;;;;;14.82;10.75;;;21.40;58.40;;;;;;5029949;28;20114;-56
2022/04/29 13:37:44;;;;;;;13.35;10.50;;;21.60;58.70;;;;;;5021063;28;20370;-57
2022/04/29 13:40:28;;;;;;;;;;;22.00;58.30;;;;;;5029363;28;20044;-58
2022/04/29 13:43:12;;;;;;;15.77;10.90;;;22.20;57.30;;;;;;5030621;28;20269;-58
2022/04/29 13:45:58;;;;;;;25.05;12.90;;;21.90;57.50;;;;;;5032217;28;20033;-58
2022/04/29 13:48:43;;;;;;;16.08;10.30;;;21.60;56.60;;;;;;5031204;28;20197;-59
2022/04/29 13:51:27;;;;;;;13.55;9.55;;;21.60;57.90;;;;;;5012202;28;20032;-57
2022/04/29 13:54:11;;;;;;;20.33;12.43;;;21.70;58.20;;;;;;5011624;28;20417;-59
2022/04/29 13:56:58;;;;;;;20.38;11.95;;;21.50;57.30;;;;;;5025419;28;20575;-58
2022/04/29 13:59:42;;;;;;;17.50;11.68;;;21.10;57.70;;;;;;5028930;28;20486;-60
2022/04/29 14:02:28;;;;;;;16.80;10.90;;;20.90;57.80;;;;;;5028993;28;20031;-60
2022/04/29 14:05:12;;;;;;;15.10;12.00;;;20.70;58.90;;;;;;5029415;28;20041;-58
2022/04/29 14:07:57;;;;;;;14.57;11.82;;;20.50;58.50;;;;;;5023646;28;20065;-55
2022/04/29 14:10:42;;;;;;;18.23;11.82;;;20.50;58.40;;;;;;5016379;28;20068;-61
2022/04/29 14:13:26;;;;;;;12.68;11.02;;;20.10;59.00;;;;;;5030742;28;20040;-59
2022/04/29 14:16:10;;;;;;;14.75;11.30;;;20.10;59.40;;;;;;5015780;28;20119;-57
2022/04/29 14:18:54;;;;;;;16.95;10.68;;;20.20;60.10;;;;;;5016156;28;20080;-60
2022/04/29 14:21:38;;;;;;;18.50;12.43;;;20.50;59.00;;;;;;5016179;28;20113;-56
2022/04/29 14:24:22;;;;;;;;;;;20.60;59.50;;;;;;5031616;28;20393;-56
2022/04/29 14:27:07;;;;;;;16.83;11.15;;;20.40;58.40;;;;;;5035502;28;19943;-60
2022/04/29 14:29:52;;;;;;;15.30;11.50;;;20.60;58.20;;;;;;5035479;28;20438;-61
2022/04/29 14:32:37;;;;;;;16.33;11.45;;;20.50;58.10;;;;;;5036554;28;20068;-67
2022/04/29 14:35:22;;;;;;;12.93;10.05;;;20.50;58.00;;;;;;5020988;28;20503;-62
2022/04/29 14:38:06;;;;;;;12.57;9.95;;;20.60;58.00;;;;;;5035349;28;20047;-57
2022/04/29 14:40:52;;;;;;;14.75;10.77;;;20.60;58.20;;;;;;5039884;28;20029;-57
2022/04/29 14:43:36;;;;;;;13.90;9.73;;;21.00;58.10;;;;;;5038525;28;20041;-54
2022/04/29 14:46:20;;;;;;;13.88;10.70;;;21.10;58.60;;;;;;5041558;28;20033;-53
2022/04/29 14:49:04;;;;;;;13.35;9.63;;;21.20;56.80;;;;;;5037945;28;20159;-52
2022/04/29 14:51:48;;;;;;;16.60;10.68;;;21.60;56.80;;;;;;5037363;28;20504;-57
2022/04/29 14:54:32;;;;;;;13.82;10.27;;;22.00;56.20;;;;;;5041621;28;20098;-52
2022/04/29 14:57:16;;;;;;;13.23;10.27;;;22.10;56.20;;;;;;5038404;28;20098;-56
2022/04/29 15:00:00;;;;;;;23.10;12.60;;;22.50;55.30;;;;;;5041454;28;20107;-55
2022/04/29 15:02:46;;;;;;;15.02;10.88;;;22.80;55.90;;;;;;5038843;28;20032;-52
2022/04/29 15:05:30;;;;;;;16.52;12.90;;;23.30;56.40;;;;;;5010738;28;20059;-51
2022/04/29 15:08:14;;;;;;;25.85;15.35;;;23.90;54.70;;;;;;5039665;28;20047;-54
2022/04/29 15:17:13;;;;;;;16.17;12.63;;;23.70;54.00;;;;;;5038360;28;20028;-57
2022/04/29 15:19:58;;;;;;;14.23;12.32;;;23.80;53.90;;;;;;5030203;28;20547;-59
2022/04/29 15:22:43;;;;;;;17.25;11.93;;;23.90;53.50;;;;;;5029983;28;20036;-58
2022/04/29 15:25:27;;;;;;;16.25;12.27;;;24.00;53.40;;;;;;5019726;28;20044;-57
2022/04/29 15:28:12;;;;;;;15.68;10.90;;;24.30;52.80;;;;;;5035912;28;20044;-56
2022/04/29 15:30:56;;;;;;;15.45;10.35;;;24.40;52.40;;;;;;5037913;28;20119;-55
2022/04/29 15:33:40;;;;;;;11.95;9.55;;;24.60;52.70;;;;;;5041306;28;20099;-56
2022/04/29 15:36:24;;;;;;;14.77;11.60;;;25.00;52.70;;;;;;5040853;28;20134;-55
2022/04/29 15:39:08;;;;;;;15.80;11.20;;;25.20;51.70;;;;;;5047715;28;20110;-56
2022/04/29 15:41:53;;;;;;;13.77;10.32;;;25.20;51.30;;;;;;5033943;28;20385;-54
2022/04/29 15:44:38;;;;;;;;;;;25.50;51.30;;;;;;5034146;28;20063;-58
2022/04/29 15:47:22;;;;;;;13.85;10.10;;;25.60;51.00;;;;;;5032862;28;20051;-54
2022/04/29 15:50:07;;;;;;;14.77;9.57;;;25.60;50.40;;;;;;5033757;28;20049;-58
2022/04/29 15:52:51;;;;;;;12.43;9.10;;;25.50;49.50;;;;;;5032993;28;20044;-55
2022/04/29 15:55:36;;;;;;;13.80;9.98;;;25.70;49.00;;;;;;5033310;28;20396;-55
2022/04/29 15:58:20;;;;;;;12.38;9.57;;;26.00;49.60;;;;;;5032884;28;20527;-52
2022/04/29 16:01:04;;;;;;;14.50;10.32;;;26.40;49.60;;;;;;5033443;28;20031;-52
2022/04/29 16:03:51;;;;;;;19.17;13.45;;;26.50;49.20;;;;;;5031056;28;20045;-53
2022/04/29 16:06:38;;;;;;;23.42;16.63;;;26.50;49.00;;;;;;5018440;28;20037;-56
2022/04/29 16:09:23;;;;;;;13.95;10.75;;;26.40;48.40;;;;;;5033528;28;20088;-55
2022/04/29 16:12:07;;;;;;;13.38;9.73;;;26.40;47.30;;;;;;5033034;28;20036;-56
2022/04/29 16:14:52;;;;;;;14.18;9.65;;;26.20;47.40;;;;;;5033163;28;20035;-56
2022/04/29 16:20:39;;;;;;;16.80;10.10;;;25.20;49.10;;;;;;5013114;28;20453;-54
2022/04/29 16:26:26;;;;;;;14.70;9.70;;;23.70;50.20;;;;;;5020512;28;20563;-54
2022/04/29 16:29:11;;;;;;;13.35;10.30;;;23.00;51.70;;;;;;5032225;28;20052;-54
2022/04/29 16:31:56;;;;;;;15.15;10.52;;;22.70;51.70;;;;;;5018053;28;20108;-55
2022/04/29 16:34:40;;;;;;;;;;;22.30;52.20;;;;;;5018283;28;20040;-60
2022/04/29 16:37:24;;;;;;;22.17;11.00;;;22.20;52.80;;;;;;5032433;28;19920;-53
2022/04/29 16:40:09;;;;;;;16.02;10.77;;;22.30;53.20;;;;;;5032412;28;20056;-54
2022/04/29 16:42:55;;;;;;;13.65;10.30;;;22.30;53.40;;;;;;5032618;28;20524;-55
2022/04/29 16:45:45;;;;;;;13.63;9.95;;;22.20;53.40;;;;;;5032218;28;20039;-53
2022/04/29 16:48:31;;;;;;;15.20;10.48;;;22.20;53.50;;;;;;5032918;28;20040;-53
2022/04/29 16:51:15;;;;;;;16.70;10.60;;;22.20;53.50;;;;;;5027144;28;20040;-53
2022/04/29 16:54:00;;;;;;;;;;;22.80;52.90;;;;;;5033145;28;20766;-53
2022/04/29 16:59:47;;;;;;;12.52;9.50;;;25.20;50.50;;;;;;5032759;28;20508;-55
2022/04/29 17:02:31;;;;;;;12.88;10.13;;;26.80;49.10;;;;;;5051610;28;20039;-56
2022/04/29 17:05:15;;;;;;;12.10;9.23;;;27.90;48.00;;;;;;5039722;28;20160;-54
2022/04/29 17:08:00;;;;;;;11.82;8.88;;;28.80;47.00;;;;;;5032573;28;20052;-58
2022/04/29 17:10:45;;;;;;;10.27;8.90;;;29.40;46.30;;;;;;5031537;28;20108;-58
2022/04/29 17:13:30;;;;;;;13.60;9.25;;;29.30;45.70;;;;;;5032094;28;20500;-56
2022/04/29 17:16:16;;;;;;;11.20;8.70;;;28.50;45.90;;;;;;5032796;28;20039;-58